Terminal Aerodrome Forecast
Issued by NWS

Home | Current Version | Previous Version | Text Only | Print | Product List | Glossary On
Versions: 1 2 3 4 5 6 7 8 9 10 11 12
420
FTUS46 KSTO 201723
TAFRDD
TAF
KRDD 201723Z 2018/2118 19010KT P6SM BKN080
     FM210000 30008KT P6SM SCT050 OVC100
     FM210800 35005KT P6SM SCT050 BKN250=

USA.gov is the U.S. government's official web portal to all federal, state and local government web resources and services.